sensor_id;sensor_type;location;lat;lon;timestamp;pressure;altitude;pressure_sealevel;temperature;humidity
29909;BME280;36247;51.952;6.146;2024-03-23T00:53:23;100958.47;;;7.88;100.00
29909;BME280;36247;51.952;6.146;2024-03-23T00:55:49;100952.81;;;7.74;100.00
29909;BME280;36247;51.952;6.146;2024-03-23T00:58:14;100951.75;;;7.67;100.00
29909;BME280;36247;51.952;6.146;2024-03-23T01:00:39;100936.88;;;7.69;100.00
29909;BME280;36247;51.952;6.146;2024-03-23T01:03:05;100938.63;;;7.69;100.00
29909;BME280;36247;51.952;6.146;2024-03-23T01:05:30;100935.84;;;7.64;100.00
29909;BME280;36247;51.952;6.146;2024-03-23T01:07:55;100929.84;;;7.70;100.00
29909;BME280;36247;51.952;6.146;2024-03-23T01:10:21;100940.44;;;7.71;100.00
29909;BME280;36247;51.952;6.146;2024-03-23T01:12:46;100929.72;;;7.65;100.00
29909;BME280;36247;51.952;6.146;2024-03-23T01:15:12;100933.94;;;7.58;100.00
29909;BME280;36247;51.952;6.146;2024-03-23T01:17:37;100934.84;;;7.59;100.00
29909;BME280;36247;51.952;6.146;2024-03-23T01:20:02;100937.34;;;7.54;100.00
29909;BME280;36247;51.952;6.146;2024-03-23T01:22:28;100932.00;;;7.51;100.00
29909;BME280;36247;51.952;6.146;2024-03-23T01:24:53;100930.94;;;7.46;100.00
29909;BME280;36247;51.952;6.146;2024-03-23T01:27:19;100928.44;;;7.51;100.00
29909;BME280;36247;51.952;6.146;2024-03-23T01:29:44;100924.03;;;7.50;100.00
29909;BME280;36247;51.952;6.146;2024-03-23T01:32:09;100928.28;;;7.45;100.00
29909;BME280;36247;51.952;6.146;2024-03-23T01:34:35;100923.13;;;7.49;100.00
29909;BME280;36247;51.952;6.146;2024-03-23T01:37:00;100923.91;;;7.45;100.00
29909;BME280;36247;51.952;6.146;2024-03-23T01:39:26;100915.69;;;7.34;100.00
29909;BME280;36247;51.952;6.146;2024-03-23T01:41:51;100907.81;;;7.36;100.00
29909;BME280;36247;51.952;6.146;2024-03-23T01:44:16;100905.31;;;7.39;100.00
29909;BME280;36247;51.952;6.146;2024-03-23T01:46:42;100904.38;;;7.38;100.00
29909;BME280;36247;51.952;6.146;2024-03-23T01:49:10;100899.00;;;7.34;100.00
29909;BME280;36247;51.952;6.146;2024-03-23T01:51:36;100903.38;;;7.33;100.00
29909;BME280;36247;51.952;6.146;2024-03-23T01:54:03;100913.97;;;7.35;100.00
29909;BME280;36247;51.952;6.146;2024-03-23T01:56:35;100917.31;;;7.29;100.00
29909;BME280;36247;51.952;6.146;2024-03-23T01:59:07;100904.44;;;7.40;100.00
29909;BME280;36247;51.952;6.146;2024-03-23T02:01:34;100897.03;;;7.27;100.00
29909;BME280;36247;51.952;6.146;2024-03-23T02:04:01;100902.91;;;7.18;100.00
29909;BME280;36247;51.952;6.146;2024-03-23T02:06:27;100894.44;;;7.28;100.00
29909;BME280;36247;51.952;6.146;2024-03-23T02:08:53;100893.50;;;7.26;100.00
29909;BME280;36247;51.952;6.146;2024-03-23T02:11:19;100888.94;;;7.20;100.00
29909;BME280;36247;51.952;6.146;2024-03-23T02:13:45;100895.94;;;7.18;100.00
29909;BME280;36247;51.952;6.146;2024-03-23T02:16:10;100891.66;;;7.23;100.00
29909;BME280;36247;51.952;6.146;2024-03-23T02:18:35;100885.34;;;7.17;100.00
29909;BME280;36247;51.952;6.146;2024-03-23T02:21:01;100869.41;;;7.12;100.00
29909;BME280;36247;51.952;6.146;2024-03-23T02:23:26;100864.31;;;7.18;100.00
29909;BME280;36247;51.952;6.146;2024-03-23T02:25:52;100867.53;;;7.08;100.00
29909;BME280;36247;51.952;6.146;2024-03-23T02:28:19;100863.03;;;7.04;100.00
29909;BME280;36247;51.952;6.146;2024-03-23T02:30:44;100863.03;;;7.04;100.00
29909;BME280;36247;51.952;6.146;2024-03-23T02:33:09;100863.88;;;7.03;100.00
29909;BME280;36247;51.952;6.146;2024-03-23T02:35:35;100858.97;;;7.15;100.00
29909;BME280;36247;51.952;6.146;2024-03-23T02:38:00;100862.41;;;7.13;100.00
29909;BME280;36247;51.952;6.146;2024-03-23T02:40:26;100862.28;;;7.08;100.00
29909;BME280;36247;51.952;6.146;2024-03-23T02:42:52;100863.06;;;7.05;100.00
29909;BME280;36247;51.952;6.146;2024-03-23T02:45:18;100860.09;;;7.25;100.00
29909;BME280;36247;51.952;6.146;2024-03-23T02:47:43;100859.28;;;7.28;100.00
29909;BME280;36247;51.952;6.146;2024-03-23T02:50:09;100844.31;;;7.27;100.00
29909;BME280;36247;51.952;6.146;2024-03-23T02:52:35;100849.44;;;7.20;100.00
29909;BME280;36247;51.952;6.146;2024-03-23T02:55:01;100845.84;;;7.17;100.00
29909;BME280;36247;51.952;6.146;2024-03-23T02:57:29;100853.69;;;7.15;100.00
29909;BME280;36247;51.952;6.146;2024-03-23T02:59:55;100863.28;;;7.13;100.00
29909;BME280;36247;51.952;6.146;2024-03-23T03:02:20;100861.50;;;7.12;100.00
29909;BME280;36247;51.952;6.146;2024-03-23T03:04:46;100869.13;;;7.03;100.00
29909;BME280;36247;51.952;6.146;2024-03-23T03:07:12;100867.44;;;7.05;100.00
29909;BME280;36247;51.952;6.146;2024-03-23T03:09:37;100866.75;;;7.11;100.00
29909;BME280;36247;51.952;6.146;2024-03-23T03:12:05;100870.72;;;6.96;100.00
29909;BME280;36247;51.952;6.146;2024-03-23T03:14:30;100857.78;;;7.05;100.00
29909;BME280;36247;51.952;6.146;2024-03-23T03:16:56;100863.59;;;6.94;100.00
29909;BME280;36247;51.952;6.146;2024-03-23T03:19:21;100863.56;;;6.92;100.00
29909;BME280;36247;51.952;6.146;2024-03-23T03:21:47;100864.78;;;7.03;100.00
29909;BME280;36247;51.952;6.146;2024-03-23T03:24:13;100862.69;;;6.92;100.00
29909;BME280;36247;51.952;6.146;2024-03-23T03:26:39;100862.84;;;6.98;100.00
29909;BME280;36247;51.952;6.146;2024-03-23T03:29:04;100857.00;;;7.08;100.00
29909;BME280;36247;51.952;6.146;2024-03-23T03:31:30;100861.28;;;7.04;100.00
29909;BME280;36247;51.952;6.146;2024-03-23T03:33:55;100866.22;;;6.94;100.00
29909;BME280;36247;51.952;6.146;2024-03-23T03:36:20;100870.88;;;7.02;100.00
29909;BME280;36247;51.952;6.146;2024-03-23T03:38:46;100860.22;;;6.98;100.00
29909;BME280;36247;51.952;6.146;2024-03-23T03:41:11;100854.94;;;6.98;100.00
29909;BME280;36247;51.952;6.146;2024-03-23T03:43:37;100857.66;;;7.01;100.00
29909;BME280;36247;51.952;6.146;2024-03-23T03:46:03;100860.34;;;7.02;100.00
29909;BME280;36247;51.952;6.146;2024-03-23T03:48:29;100848.66;;;6.93;100.00
29909;BME280;36247;51.952;6.146;2024-03-23T03:50:54;100842.44;;;6.91;100.00
29909;BME280;36247;51.952;6.146;2024-03-23T03:53:20;100840.97;;;7.00;100.00
29909;BME280;36247;51.952;6.146;2024-03-23T03:55:46;100845.13;;;6.92;100.00
29909;BME280;36247;51.952;6.146;2024-03-23T03:58:11;100843.63;;;7.00;100.00
29909;BME280;36247;51.952;6.146;2024-03-23T04:00:37;100834.94;;;7.04;100.00
29909;BME280;36247;51.952;6.146;2024-03-23T04:03:02;100837.59;;;7.06;100.00
29909;BME280;36247;51.952;6.146;2024-03-23T04:05:28;100838.56;;;7.08;100.00
29909;BME280;36247;51.952;6.146;2024-03-23T04:07:53;100825.19;;;7.00;100.00
29909;BME280;36247;51.952;6.146;2024-03-23T04:10:20;100827.09;;;7.07;100.00
29909;BME280;36247;51.952;6.146;2024-03-23T04:12:45;100831.13;;;6.93;100.00
29909;BME280;36247;51.952;6.146;2024-03-23T04:15:11;100837.22;;;6.92;100.00
29909;BME280;36247;51.952;6.146;2024-03-23T04:17:37;100832.75;;;6.89;100.00
29909;BME280;36247;51.952;6.146;2024-03-23T04:20:03;100836.09;;;6.82;100.00
29909;BME280;36247;51.952;6.146;2024-03-23T04:22:30;100830.47;;;6.71;100.00
29909;BME280;36247;51.952;6.146;2024-03-23T04:24:56;100829.59;;;6.71;100.00
29909;BME280;36247;51.952;6.146;2024-03-23T04:27:25;100827.84;;;6.71;100.00
29909;BME280;36247;51.952;6.146;2024-03-23T04:29:51;100828.41;;;6.61;100.00
29909;BME280;36247;51.952;6.146;2024-03-23T04:32:17;100822.00;;;6.51;100.00
29909;BME280;36247;51.952;6.146;2024-03-23T04:34:43;100822.41;;;6.65;100.00
29909;BME280;36247;51.952;6.146;2024-03-23T04:37:09;100823.03;;;6.57;100.00
29909;BME280;36247;51.952;6.146;2024-03-23T04:39:38;100821.34;;;6.59;100.00
29909;BME280;36247;51.952;6.146;2024-03-23T04:42:04;100817.84;;;6.60;100.00
29909;BME280;36247;51.952;6.146;2024-03-23T04:44:29;100815.66;;;6.45;100.00
29909;BME280;36247;51.952;6.146;2024-03-23T04:46:56;100821.16;;;6.52;100.00
29909;BME280;36247;51.952;6.146;2024-03-23T04:49:23;100819.00;;;6.39;100.00
29909;BME280;36247;51.952;6.146;2024-03-23T04:51:49;100819.56;;;6.29;100.00
29909;BME280;36247;51.952;6.146;2024-03-23T04:54:15;100819.09;;;6.42;100.00
29909;BME280;36247;51.952;6.146;2024-03-23T04:56:40;100819.91;;;6.40;100.00
29909;BME280;36247;51.952;6.146;2024-03-23T04:59:06;100815.50;;;6.40;100.00
29909;BME280;36247;51.952;6.146;2024-03-23T05:01:32;100807.63;;;6.40;100.00
29909;BME280;36247;51.952;6.146;2024-03-23T05:04:02;100812.56;;;6.29;100.00
29909;BME280;36247;51.952;6.146;2024-03-23T05:06:27;100814.34;;;6.30;100.00
29909;BME280;36247;51.952;6.146;2024-03-23T05:08:52;100811.53;;;6.24;100.00
29909;BME280;36247;51.952;6.146;2024-03-23T05:11:18;100814.13;;;6.23;100.00
29909;BME280;36247;51.952;6.146;2024-03-23T05:13:44;100818.16;;;6.11;100.00
29909;BME280;36247;51.952;6.146;2024-03-23T05:16:09;100813.84;;;6.15;100.00
29909;BME280;36247;51.952;6.146;2024-03-23T05:18:35;100818.44;;;6.21;100.00
29909;BME280;36247;51.952;6.146;2024-03-23T05:21:01;100807.81;;;6.17;100.00
29909;BME280;36247;51.952;6.146;2024-03-23T05:23:28;100814.59;;;6.09;100.00
29909;BME280;36247;51.952;6.146;2024-03-23T05:25:53;100816.16;;;6.04;100.00
29909;BME280;36247;51.952;6.146;2024-03-23T05:28:20;100813.84;;;6.15;100.00
29909;BME280;36247;51.952;6.146;2024-03-23T05:30:55;100819.16;;;6.16;100.00
29909;BME280;36247;51.952;6.146;2024-03-23T05:33:22;100808.41;;;6.09;100.00
29909;BME280;36247;51.952;6.146;2024-03-23T05:35:59;100819.56;;;6.02;100.00
29909;BME280;36247;51.952;6.146;2024-03-23T05:38:25;100818.47;;;5.95;100.00
29909;BME280;36247;51.952;6.146;2024-03-23T05:40:58;100823.16;;;6.04;100.00
29909;BME280;36247;51.952;6.146;2024-03-23T05:43:25;100823.16;;;6.04;100.00
29909;BME280;36247;51.952;6.146;2024-03-23T05:45:58;100823.84;;;5.98;100.00
29909;BME280;36247;51.952;6.146;2024-03-23T05:48:25;100826.19;;;6.16;100.00
29909;BME280;36247;51.952;6.146;2024-03-23T05:50:51;100823.00;;;6.26;100.00
29909;BME280;36247;51.952;6.146;2024-03-23T05:53:17;100823.50;;;6.14;100.00
29909;BME280;36247;51.952;6.146;2024-03-23T05:55:43;100821.69;;;6.13;100.00
29909;BME280;36247;51.952;6.146;2024-03-23T05:58:08;100822.34;;;6.05;100.00
29909;BME280;36247;51.952;6.146;2024-03-23T06:00:34;100817.94;;;6.05;100.00
29909;BME280;36247;51.952;6.146;2024-03-23T06:02:59;100825.97;;;6.10;100.00
29909;BME280;36247;51.952;6.146;2024-03-23T06:05:25;100817.22;;;6.09;100.00
29909;BME280;36247;51.952;6.146;2024-03-23T06:07:50;100829.44;;;6.09;100.00
29909;BME280;36247;51.952;6.146;2024-03-23T06:10:15;100823.41;;;6.11;100.00
29909;BME280;36247;51.952;6.146;2024-03-23T06:12:41;100824.34;;;6.13;100.00
29909;BME280;36247;51.952;6.146;2024-03-23T06:15:07;100829.53;;;6.12;100.00
29909;BME280;36247;51.952;6.146;2024-03-23T06:17:38;100833.03;;;6.11;100.00
29909;BME280;36247;51.952;6.146;2024-03-23T06:20:04;100832.53;;;6.23;100.00
29909;BME280;36247;51.952;6.146;2024-03-23T06:22:31;100827.41;;;6.27;100.00
29909;BME280;36247;51.952;6.146;2024-03-23T06:24:56;100828.56;;;6.37;100.00
29909;BME280;36247;51.952;6.146;2024-03-23T06:27:22;100826.31;;;6.21;100.00
29909;BME280;36247;51.952;6.146;2024-03-23T06:29:47;100830.19;;;6.32;100.00
29909;BME280;36247;51.952;6.146;2024-03-23T06:32:13;100833.66;;;6.31;100.00
29909;BME280;36247;51.952;6.146;2024-03-23T06:34:41;100832.81;;;6.32;100.00
29909;BME280;36247;51.952;6.146;2024-03-23T06:37:07;100827.00;;;6.42;100.00
29909;BME280;36247;51.952;6.146;2024-03-23T06:39:35;100827.09;;;6.45;100.00
29909;BME280;36247;51.952;6.146;2024-03-23T06:42:00;100829.59;;;6.41;100.00
29909;BME280;36247;51.952;6.146;2024-03-23T06:44:26;100823.31;;;6.37;100.00
29909;BME280;36247;51.952;6.146;2024-03-23T06:46:51;100825.78;;;6.61;100.00
29909;BME280;36247;51.952;6.146;2024-03-23T06:49:17;100823.09;;;6.60;100.00
29909;BME280;36247;51.952;6.146;2024-03-23T06:51:42;100820.88;;;6.72;100.00
29909;BME280;36247;51.952;6.146;2024-03-23T06:54:07;100822.44;;;6.67;100.00
29909;BME280;36247;51.952;6.146;2024-03-23T06:56:33;100829.16;;;6.56;100.00
29909;BME280;36247;51.952;6.146;2024-03-23T06:58:59;100822.44;;;6.67;100.00
29909;BME280;36247;51.952;6.146;2024-03-23T07:01:24;100827.00;;;6.73;100.00
29909;BME280;36247;51.952;6.146;2024-03-23T07:03:50;100822.50;;;6.68;100.00
29909;BME280;36247;51.952;6.146;2024-03-23T07:06:15;100823.59;;;6.75;100.00
29909;BME280;36247;51.952;6.146;2024-03-23T07:08:40;100814.66;;;7.00;100.00
29909;BME280;36247;51.952;6.146;2024-03-23T07:11:06;100818.69;;;7.21;100.00
29909;BME280;36247;51.952;6.146;2024-03-23T07:13:31;100829.09;;;7.16;100.00
29909;BME280;36247;51.952;6.146;2024-03-23T07:15:57;100822.03;;;7.14;100.00
29909;BME280;36247;51.952;6.146;2024-03-23T07:18:23;100829.63;;;7.03;100.00
29909;BME280;36247;51.952;6.146;2024-03-23T07:21:06;100823.69;;;7.10;100.00
29909;BME280;36247;51.952;6.146;2024-03-23T07:23:32;100826.97;;;7.03;100.00
29909;BME280;36247;51.952;6.146;2024-03-23T07:25:58;100827.91;;;7.37;100.00
29909;BME280;36247;51.952;6.146;2024-03-23T07:28:24;100816.59;;;7.41;100.00
29909;BME280;36247;51.952;6.146;2024-03-23T07:31:04;100828.47;;;7.25;100.00
29909;BME280;36247;51.952;6.146;2024-03-23T07:33:30;100824.88;;;7.21;100.00
29909;BME280;36247;51.952;6.146;2024-03-23T07:35:56;100819.09;;;7.35;100.00
29909;BME280;36247;51.952;6.146;2024-03-23T07:38:21;100816.38;;;7.32;100.00
29909;BME280;36247;51.952;6.146;2024-03-23T07:40:47;100818.00;;;7.28;100.00
29909;BME280;36247;51.952;6.146;2024-03-23T07:43:15;100815.91;;;7.48;100.00
29909;BME280;36247;51.952;6.146;2024-03-23T07:45:40;100818.56;;;7.48;100.00
29909;BME280;36247;51.952;6.146;2024-03-23T07:48:06;100819.31;;;7.44;100.00
29909;BME280;36247;51.952;6.146;2024-03-23T07:50:31;100817.00;;;7.56;100.00
29909;BME280;36247;51.952;6.146;2024-03-23T07:52:57;100815.06;;;7.84;100.00
29909;BME280;36247;51.952;6.146;2024-03-23T07:55:22;100812.59;;;7.55;100.00
29909;BME280;36247;51.952;6.146;2024-03-23T07:57:48;100812.22;;;7.75;100.00
29909;BME280;36247;51.952;6.146;2024-03-23T08:00:13;100804.50;;;7.84;100.00
29909;BME280;36247;51.952;6.146;2024-03-23T08:02:39;100810.19;;;7.65;100.00
29909;BME280;36247;51.952;6.146;2024-03-23T08:05:04;100821.72;;;7.70;100.00
29909;BME280;36247;51.952;6.146;2024-03-23T08:07:30;100811.47;;;7.82;100.00
29909;BME280;36247;51.952;6.146;2024-03-23T08:09:55;100798.44;;;7.87;100.00
29909;BME280;36247;51.952;6.146;2024-03-23T08:12:20;100800.28;;;7.92;100.00
29909;BME280;36247;51.952;6.146;2024-03-23T08:14:46;100807.22;;;8.25;100.00
29909;BME280;36247;51.952;6.146;2024-03-23T08:17:11;100810.13;;;8.36;100.00
29909;BME280;36247;51.952;6.146;2024-03-23T08:19:36;100810.59;;;8.18;100.00
29909;BME280;36247;51.952;6.146;2024-03-23T08:22:02;100815.84;;;8.17;100.00
29909;BME280;36247;51.952;6.146;2024-03-23T08:24:28;100809.00;;;8.64;100.00
29909;BME280;36247;51.952;6.146;2024-03-23T08:26:54;100810.03;;;8.73;100.00
29909;BME280;36247;51.952;6.146;2024-03-23T08:29:19;100820.41;;;8.63;100.00
29909;BME280;36247;51.952;6.146;2024-03-23T08:31:45;100821.13;;;8.17;100.00
29909;BME280;36247;51.952;6.146;2024-03-23T08:34:10;100823.03;;;8.62;100.00
29909;BME280;36247;51.952;6.146;2024-03-23T08:36:36;100821.19;;;9.00;100.00
29909;BME280;36247;51.952;6.146;2024-03-23T08:39:01;100820.03;;;8.45;100.00
29909;BME280;36247;51.952;6.146;2024-03-23T08:41:27;100812.56;;;8.67;100.00
29909;BME280;36247;51.952;6.146;2024-03-23T08:43:52;100822.09;;;8.22;100.00
29909;BME280;36247;51.952;6.146;2024-03-23T08:46:17;100823.22;;;8.32;100.00
29909;BME280;36247;51.952;6.146;2024-03-23T08:48:46;100820.28;;;8.19;100.00
29909;BME280;36247;51.952;6.146;2024-03-23T08:51:15;100816.41;;;8.43;100.00
29909;BME280;36247;51.952;6.146;2024-03-23T08:53:41;100823.66;;;8.50;100.00
29909;BME280;36247;51.952;6.146;2024-03-23T08:56:08;100801.66;;;8.50;100.00
29909;BME280;36247;51.952;6.146;2024-03-23T08:58:35;100804.03;;;9.24;100.00
29909;BME280;36247;51.952;6.146;2024-03-23T09:01:09;100801.81;;;9.02;100.00
29909;BME280;36247;51.952;6.146;2024-03-23T09:03:35;100804.13;;;8.85;100.00
29909;BME280;36247;51.952;6.146;2024-03-23T09:06:01;100800.78;;;9.39;100.00
29909;BME280;36247;51.952;6.146;2024-03-23T09:08:27;100793.91;;;10.05;100.00
29909;BME280;36247;51.952;6.146;2024-03-23T09:10:52;100792.44;;;9.68;100.00
29909;BME280;36247;51.952;6.146;2024-03-23T09:13:18;100788.16;;;9.78;100.00
29909;BME280;36247;51.952;6.146;2024-03-23T09:15:48;100784.47;;;9.66;100.00
29909;BME280;36247;51.952;6.146;2024-03-23T09:18:14;100785.44;;;10.30;100.00
29909;BME280;36247;51.952;6.146;2024-03-23T09:20:39;100786.69;;;10.53;100.00
29909;BME280;36247;51.952;6.146;2024-03-23T09:23:05;100795.69;;;10.06;100.00
29909;BME280;36247;51.952;6.146;2024-03-23T09:25:30;100812.44;;;8.60;100.00
29909;BME280;36247;51.952;6.146;2024-03-23T09:27:55;100827.25;;;8.54;100.00
29909;BME280;36247;51.952;6.146;2024-03-23T09:30:21;100835.00;;;7.73;100.00
29909;BME280;36247;51.952;6.146;2024-03-23T09:32:46;100820.03;;;7.72;100.00
29909;BME280;36247;51.952;6.146;2024-03-23T09:35:12;100803.44;;;7.77;100.00
29909;BME280;36247;51.952;6.146;2024-03-23T09:37:40;100805.25;;;7.79;100.00
29909;BME280;36247;51.952;6.146;2024-03-23T09:40:15;100799.72;;;8.06;100.00
29909;BME280;36247;51.952;6.146;2024-03-23T09:42:41;100795.16;;;7.62;100.00
29909;BME280;36247;51.952;6.146;2024-03-23T09:45:20;100789.88;;;8.37;100.00
29909;BME280;36247;51.952;6.146;2024-03-23T09:47:46;100794.75;;;9.00;100.00
29909;BME280;36247;51.952;6.146;2024-03-23T09:50:13;100777.16;;;10.05;100.00
29909;BME280;36247;51.952;6.146;2024-03-23T09:52:38;100775.22;;;9.95;100.00
29909;BME280;36247;51.952;6.146;2024-03-23T09:55:04;100775.88;;;10.36;100.00
29909;BME280;36247;51.952;6.146;2024-03-23T09:57:30;100763.63;;;10.48;100.00
29909;BME280;36247;51.952;6.146;2024-03-23T09:59:55;100784.94;;;10.54;100.00
29909;BME280;36247;51.952;6.146;2024-03-23T10:02:22;100785.16;;;10.10;100.00
29909;BME280;36247;51.952;6.146;2024-03-23T10:04:48;100784.06;;;8.94;100.00
29909;BME280;36247;51.952;6.146;2024-03-23T10:07:15;100784.25;;;8.61;100.00
29909;BME280;36247;51.952;6.146;2024-03-23T10:09:42;100779.69;;;9.44;100.00
29909;BME280;36247;51.952;6.146;2024-03-23T10:12:12;100780.00;;;10.19;100.00
29909;BME280;36247;51.952;6.146;2024-03-23T10:14:39;100774.69;;;10.17;100.00
29909;BME280;36247;51.952;6.146;2024-03-23T10:17:15;100771.88;;;10.69;100.00
29909;BME280;36247;51.952;6.146;2024-03-23T10:19:48;100770.72;;;10.49;100.00
29909;BME280;36247;51.952;6.146;2024-03-23T10:22:22;100767.56;;;11.70;100.00
29909;BME280;36247;51.952;6.146;2024-03-23T10:24:48;100762.97;;;11.49;100.00
29909;BME280;36247;51.952;6.146;2024-03-23T10:27:21;100761.72;;;12.14;100.00
29909;BME280;36247;51.952;6.146;2024-03-23T10:29:47;100756.50;;;12.28;100.00
29909;BME280;36247;51.952;6.146;2024-03-23T10:32:17;100754.97;;;12.81;100.00
29909;BME280;36247;51.952;6.146;2024-03-23T10:34:43;100747.69;;;12.38;100.00
29909;BME280;36247;51.952;6.146;2024-03-23T10:37:09;100753.16;;;12.70;100.00
29909;BME280;36247;51.952;6.146;2024-03-23T10:42:13;100764.25;;;11.95;100.00
29909;BME280;36247;51.952;6.146;2024-03-23T10:44:40;100769.91;;;10.54;100.00
29909;BME280;36247;51.952;6.146;2024-03-23T10:47:05;100777.75;;;9.87;100.00
29909;BME280;36247;51.952;6.146;2024-03-23T10:49:33;100777.34;;;10.19;100.00
29909;BME280;36247;51.952;6.146;2024-03-23T10:52:03;100802.13;;;9.17;100.00
29909;BME280;36247;51.952;6.146;2024-03-23T10:54:30;100801.75;;;8.54;100.00
29909;BME280;36247;51.952;6.146;2024-03-23T10:57:09;100788.06;;;8.34;100.00
29909;BME280;36247;51.952;6.146;2024-03-23T10:59:37;100784.28;;;8.62;100.00
29909;BME280;36247;51.952;6.146;2024-03-23T11:02:03;100780.94;;;8.70;100.00
29909;BME280;36247;51.952;6.146;2024-03-23T11:04:38;100768.50;;;9.60;100.00
29909;BME280;36247;51.952;6.146;2024-03-23T11:09:53;100742.03;;;11.86;100.00
29909;BME280;36247;51.952;6.146;2024-03-23T11:14:51;100746.72;;;12.25;100.00
29909;BME280;36247;51.952;6.146;2024-03-23T11:17:22;100748.47;;;12.14;100.00
29909;BME280;36247;51.952;6.146;2024-03-23T11:20:08;100738.06;;;11.31;100.00
29909;BME280;36247;51.952;6.146;2024-03-23T11:25:21;100746.00;;;11.28;100.00
29909;BME280;36247;51.952;6.146;2024-03-23T11:27:50;100748.06;;;11.60;93.66
29909;BME280;36247;51.952;6.146;2024-03-23T11:30:24;100736.75;;;10.87;94.38
29909;BME280;36247;51.952;6.146;2024-03-23T11:32:50;100751.13;;;11.09;94.50
29909;BME280;36247;51.952;6.146;2024-03-23T11:35:36;100742.84;;;10.82;100.00
29909;BME280;36247;51.952;6.146;2024-03-23T11:38:06;100753.13;;;9.93;100.00
29909;BME280;36247;51.952;6.146;2024-03-23T11:40:36;100745.81;;;10.34;98.62
29909;BME280;36247;51.952;6.146;2024-03-23T11:43:07;100736.19;;;11.22;97.77
29909;BME280;36247;51.952;6.146;2024-03-23T11:45:49;100748.72;;;9.92;100.00
29909;BME280;36247;51.952;6.146;2024-03-23T11:48:19;100747.47;;;10.98;100.00
29909;BME280;36247;51.952;6.146;2024-03-23T11:50:54;100739.81;;;10.48;100.00
29909;BME280;36247;51.952;6.146;2024-03-23T11:53:22;100738.28;;;10.67;95.44
29909;BME280;36247;51.952;6.146;2024-03-23T11:55:55;100743.00;;;10.94;96.10
29909;BME280;36247;51.952;6.146;2024-03-23T11:58:22;100738.50;;;10.18;100.00
29909;BME280;36247;51.952;6.146;2024-03-23T12:00:57;100746.13;;;9.96;100.00
29909;BME280;36247;51.952;6.146;2024-03-23T12:03:24;100742.66;;;9.42;100.00
29909;BME280;36247;51.952;6.146;2024-03-23T12:06:02;100741.72;;;9.40;100.00
29909;BME280;36247;51.952;6.146;2024-03-23T12:11:04;100744.59;;;9.02;100.00
29909;BME280;36247;51.952;6.146;2024-03-23T12:13:30;100761.09;;;8.90;100.00
29909;BME280;36247;51.952;6.146;2024-03-23T12:16:09;100751.94;;;9.18;100.00
29909;BME280;36247;51.952;6.146;2024-03-23T12:18:36;100770.09;;;9.02;100.00
29909;BME280;36247;51.952;6.146;2024-03-23T12:21:01;100758.91;;;8.69;100.00
29909;BME280;36247;51.952;6.146;2024-03-23T12:23:27;100752.88;;;8.75;100.00
29909;BME280;36247;51.952;6.146;2024-03-23T12:25:52;100745.19;;;9.93;100.00
29909;BME280;36247;51.952;6.146;2024-03-23T12:28:17;100747.69;;;9.83;100.00
29909;BME280;36247;51.952;6.146;2024-03-23T12:30:43;100752.22;;;8.88;100.00
29909;BME280;36247;51.952;6.146;2024-03-23T12:33:09;100738.06;;;8.83;100.00
29909;BME280;36247;51.952;6.146;2024-03-23T12:35:34;100736.91;;;8.70;100.00
29909;BME280;36247;51.952;6.146;2024-03-23T12:37:59;100741.53;;;8.38;100.00
29909;BME280;36247;51.952;6.146;2024-03-23T12:40:25;100753.22;;;8.49;100.00
29909;BME280;36247;51.952;6.146;2024-03-23T12:42:51;100734.91;;;9.03;100.00
29909;BME280;36247;51.952;6.146;2024-03-23T12:45:17;100724.88;;;9.90;100.00
29909;BME280;36247;51.952;6.146;2024-03-23T12:47:42;100728.47;;;9.95;100.00
29909;BME280;36247;51.952;6.146;2024-03-23T12:50:08;100722.63;;;10.19;100.00
29909;BME280;36247;51.952;6.146;2024-03-23T12:52:35;100719.44;;;10.40;100.00
29909;BME280;36247;51.952;6.146;2024-03-23T12:55:00;100712.59;;;9.95;100.00
29909;BME280;36247;51.952;6.146;2024-03-23T12:57:26;100707.34;;;9.98;100.00
29909;BME280;36247;51.952;6.146;2024-03-23T12:59:52;100713.88;;;10.23;100.00
29909;BME280;36247;51.952;6.146;2024-03-23T13:02:21;100722.16;;;10.48;100.00
29909;BME280;36247;51.952;6.146;2024-03-23T13:04:49;100711.59;;;10.50;100.00
29909;BME280;36247;51.952;6.146;2024-03-23T13:07:16;100705.16;;;11.10;100.00
29909;BME280;36247;51.952;6.146;2024-03-23T13:09:42;100713.16;;;10.34;100.00
29909;BME280;36247;51.952;6.146;2024-03-23T13:12:08;100714.91;;;9.70;100.00
29909;BME280;36247;51.952;6.146;2024-03-23T13:14:33;100714.03;;;9.73;100.00
29909;BME280;36247;51.952;6.146;2024-03-23T13:16:59;100705.91;;;10.23;100.00
29909;BME280;36247;51.952;6.146;2024-03-23T13:19:24;100687.41;;;11.00;100.00
29909;BME280;36247;51.952;6.146;2024-03-23T13:21:56;100682.03;;;10.96;100.00
29909;BME280;36247;51.952;6.146;2024-03-23T13:24:22;100688.06;;;10.79;97.03
29909;BME280;36247;51.952;6.146;2024-03-23T13:26:49;100686.50;;;10.98;90.24
29909;BME280;36247;51.952;6.146;2024-03-23T13:29:14;100685.50;;;11.93;91.62
29909;BME280;36247;51.952;6.146;2024-03-23T13:31:40;100694.00;;;11.49;77.79
29909;BME280;36247;51.952;6.146;2024-03-23T13:34:05;100690.94;;;12.21;82.99
29909;BME280;36247;51.952;6.146;2024-03-23T13:36:30;100684.16;;;11.35;81.68
29909;BME280;36247;51.952;6.146;2024-03-23T13:38:56;100681.00;;;10.76;80.37
29909;BME280;36247;51.952;6.146;2024-03-23T13:41:21;100687.81;;;10.56;80.27
29909;BME280;36247;51.952;6.146;2024-03-23T13:43:47;100685.41;;;10.77;85.18
29909;BME280;36247;51.952;6.146;2024-03-23T13:46:12;100683.16;;;10.35;85.52
29909;BME280;36247;51.952;6.146;2024-03-23T13:48:37;100690.97;;;10.26;91.79
29909;BME280;36247;51.952;6.146;2024-03-23T13:51:04;100691.66;;;10.11;98.37